createdAt,value
2019-04-23T00:02:16.946Z,13.20
2019-04-23T00:04:45.197Z,13.20
2019-04-23T00:07:27.543Z,13.20
2019-04-23T00:09:47.124Z,13.20
2019-04-23T00:12:27.833Z,13.10
2019-04-23T00:15:04.510Z,13.10
2019-04-23T00:17:21.394Z,12.90
2019-04-23T00:19:56.070Z,13.00
2019-04-23T00:22:50.086Z,12.90
2019-04-23T00:28:16.508Z,12.70
2019-04-23T00:30:44.286Z,12.60
2019-04-23T00:33:15.434Z,12.50
2019-04-23T00:35:41.737Z,12.40
2019-04-23T00:38:19.718Z,12.50
2019-04-23T00:40:45.369Z,12.50
2019-04-23T00:43:16.674Z,12.50
2019-04-23T00:45:44.574Z,12.40
2019-04-23T00:48:22.317Z,12.30
2019-04-23T00:50:49.212Z,12.20
2019-04-23T00:56:09.736Z,12.30
2019-04-23T01:00:55.721Z,12.30
2019-04-23T01:03:24.047Z,12.20
2019-04-23T01:05:52.673Z,12.10
2019-04-23T01:08:24.950Z,12.00
2019-04-23T01:11:01.847Z,12.00
2019-04-23T01:13:39.346Z,11.90
2019-04-23T01:21:03.476Z,11.90
2019-04-23T01:23:57.821Z,11.90
2019-04-23T01:26:41.899Z,11.90
2019-04-23T01:29:24.307Z,12.00
2019-04-23T01:31:53.281Z,12.00
2019-04-23T01:34:26.033Z,11.90
2019-04-23T01:36:54.172Z,11.80
2019-04-23T01:39:23.198Z,11.90
2019-04-23T01:41:58.405Z,11.80
2019-04-23T01:44:33.404Z,11.80
2019-04-23T01:46:57.074Z,11.80
2019-04-23T01:49:45.051Z,11.80
2019-04-23T01:52:00.366Z,11.70
2019-04-23T01:54:30.332Z,11.70
2019-04-23T01:57:01.294Z,11.80
2019-04-23T01:59:31.344Z,11.80
2019-04-23T02:02:05.239Z,11.70
2019-04-23T02:04:36.619Z,11.60
2019-04-23T02:07:06.467Z,11.60
2019-04-23T02:09:41.954Z,11.60
2019-04-23T02:12:11.629Z,11.60
2019-04-23T02:14:48.150Z,11.50
2019-04-23T02:17:13.603Z,11.50
2019-04-23T02:19:46.148Z,11.40
2019-04-23T02:22:38.851Z,11.50
2019-04-23T02:25:24.850Z,11.40
2019-04-23T02:27:53.695Z,11.30
2019-04-23T02:30:40.115Z,11.50
2019-04-23T02:35:46.840Z,11.50
2019-04-23T02:40:44.684Z,11.50
2019-04-23T02:43:06.905Z,11.40
2019-04-23T02:45:45.801Z,11.30
2019-04-23T02:48:16.717Z,11.20
2019-04-23T02:50:40.516Z,11.20
2019-04-23T02:53:31.826Z,11.10
2019-04-23T02:58:10.515Z,11.20
2019-04-23T03:03:19.818Z,11.20
2019-04-23T03:05:45.427Z,11.30
2019-04-23T03:08:20.297Z,11.20
2019-04-23T03:10:57.131Z,11.20
2019-04-23T03:13:32.139Z,11.30
2019-04-23T03:24:36.497Z,11.20
2019-04-23T03:27:19.354Z,11.20
2019-04-23T03:29:54.983Z,11.10
2019-04-23T03:37:30.863Z,11.00
2019-04-23T03:39:58.015Z,11.10
2019-04-23T03:42:18.164Z,11.10
2019-04-23T03:44:47.851Z,11.20
2019-04-23T03:47:18.590Z,11.20
2019-04-23T03:50:04.936Z,11.10
2019-04-23T03:52:35.470Z,11.10
2019-04-23T03:54:46.219Z,11.10
2019-04-23T03:57:32.106Z,11.00
2019-04-23T03:59:55.027Z,11.10
2019-04-23T04:04:44.750Z,11.00
2019-04-23T04:07:40.272Z,11.00
2019-04-23T04:09:51.764Z,11.00
2019-04-23T04:12:29.301Z,10.90
2019-04-23T04:17:26.771Z,10.60
2019-04-23T04:22:38.076Z,10.50
2019-04-23T04:30:22.269Z,10.50
2019-04-23T04:32:36.701Z,10.60
2019-04-23T04:35:18.669Z,10.50
2019-04-23T04:40:21.340Z,10.60
2019-04-23T04:45:12.234Z,10.60
2019-04-23T04:47:42.352Z,10.60
2019-04-23T04:50:04.744Z,10.50
2019-04-23T04:52:48.827Z,10.50
2019-04-23T04:55:19.453Z,10.50
2019-04-23T05:03:02.824Z,10.60
2019-04-23T05:10:25.215Z,10.60
2019-04-23T05:12:51.257Z,10.70
2019-04-23T05:15:16.545Z,10.70
2019-04-23T05:18:23.655Z,10.70
2019-04-23T05:23:21.083Z,10.70
2019-04-23T05:25:45.062Z,10.70
2019-04-23T05:30:51.774Z,10.80
2019-04-23T05:41:01.601Z,11.00
2019-04-23T05:43:30.807Z,11.10
2019-04-23T05:45:57.396Z,11.20
2019-04-23T05:48:26.095Z,11.10
2019-04-23T05:53:29.066Z,11.20
2019-04-23T05:56:01.814Z,11.30
2019-04-23T05:58:39.868Z,11.30
2019-04-23T06:01:32.475Z,11.20
2019-04-23T06:03:58.149Z,11.30
2019-04-23T06:06:36.192Z,11.30
2019-04-23T06:08:55.154Z,11.30
2019-04-23T06:11:30.764Z,11.40
2019-04-23T06:14:06.539Z,11.40
2019-04-23T06:16:34.061Z,11.50
2019-04-23T06:19:02.747Z,11.50
2019-04-23T06:21:33.935Z,11.50
2019-04-23T06:26:52.757Z,11.60
2019-04-23T06:29:10.242Z,11.60
2019-04-23T06:31:41.078Z,11.60
2019-04-23T06:34:12.434Z,11.70
2019-04-23T06:36:40.159Z,11.80
2019-04-23T06:39:10.315Z,11.80
2019-04-23T06:41:37.583Z,11.90
2019-04-23T06:49:24.681Z,12.10
2019-04-23T06:52:06.742Z,12.10
2019-04-23T06:54:25.589Z,12.20
2019-04-23T06:59:24.710Z,12.20
2019-04-23T07:04:55.371Z,12.30
2019-04-23T07:07:24.099Z,12.40
2019-04-23T07:09:22.682Z,12.40
2019-04-23T07:12:05.370Z,12.50
2019-04-23T07:14:40.836Z,12.50
2019-04-23T07:17:02.651Z,12.40
2019-04-23T07:19:37.128Z,12.50
2019-04-23T07:22:14.839Z,12.40
2019-04-23T07:24:42.094Z,12.40
2019-04-23T07:27:12.029Z,12.40
2019-04-23T07:29:38.972Z,12.60
2019-04-23T07:32:10.957Z,12.60
2019-04-23T07:34:49.783Z,12.70
2019-04-23T07:37:15.444Z,12.80
2019-04-23T07:40:11.037Z,12.90
2019-04-23T07:42:37.150Z,13.00
2019-04-23T07:45:35.343Z,13.20
2019-04-23T07:48:15.244Z,13.10
2019-04-23T07:53:23.090Z,13.10
2019-04-23T07:55:57.137Z,13.20
2019-04-23T08:01:03.620Z,13.40
2019-04-23T08:03:20.992Z,13.30
2019-04-23T08:05:54.427Z,13.40
2019-04-23T08:08:36.457Z,13.50
2019-04-23T08:16:19.941Z,13.90
2019-04-23T08:18:45.249Z,14.10
2019-04-23T08:21:16.452Z,14.30
2019-04-23T08:24:01.600Z,14.30
2019-04-23T08:27:02.752Z,14.40
2019-04-23T08:29:19.930Z,14.40
2019-04-23T08:32:03.994Z,14.50
2019-04-23T08:34:48.356Z,14.50
2019-04-23T08:37:04.629Z,14.40
2019-04-23T08:39:33.959Z,14.50
2019-04-23T08:42:21.665Z,14.60
2019-04-23T08:45:09.213Z,14.60
2019-04-23T08:48:04.077Z,14.60
2019-04-23T08:50:27.480Z,14.60
2019-04-23T08:52:40.185Z,14.40
2019-04-23T08:55:16.913Z,14.60
2019-04-23T08:57:39.786Z,14.70
2019-04-23T09:00:17.676Z,14.70
2019-04-23T09:05:21.171Z,14.50
2019-04-23T09:07:54.124Z,14.60
2019-04-23T09:10:20.841Z,14.60
2019-04-23T09:12:58.745Z,14.60
2019-04-23T09:15:26.450Z,14.80
2019-04-23T09:18:01.416Z,14.90
2019-04-23T09:22:50.301Z,15.00
2019-04-23T09:28:19.301Z,15.30
2019-04-23T09:30:28.599Z,15.40
2019-04-23T09:33:13.916Z,15.40
2019-04-23T09:35:59.295Z,15.50
2019-04-23T09:38:34.531Z,15.60
2019-04-23T09:41:28.049Z,15.70
2019-04-23T09:44:39.177Z,15.90
2019-04-23T09:46:53.315Z,15.80
2019-04-23T09:52:00.761Z,15.70
2019-04-23T09:54:33.906Z,15.70
2019-04-23T09:56:52.593Z,15.70
2019-04-23T09:59:33.864Z,15.60
2019-04-23T10:01:52.877Z,15.60
2019-04-23T10:04:17.518Z,15.70
2019-04-23T10:06:36.224Z,15.70
2019-04-23T10:09:06.634Z,15.80
2019-04-23T10:11:34.628Z,15.70
2019-04-23T10:14:04.216Z,15.70
2019-04-23T10:16:34.360Z,15.70
2019-04-23T10:19:03.918Z,15.70
2019-04-23T10:21:33.439Z,15.80
2019-04-23T10:24:03.347Z,15.80
2019-04-23T10:26:34.227Z,15.90
2019-04-23T10:29:11.842Z,16.00
2019-04-23T10:31:42.145Z,16.30
2019-04-23T10:34:12.245Z,16.20
2019-04-23T10:36:42.317Z,16.40
2019-04-23T10:39:19.582Z,16.50
2019-04-23T10:41:46.355Z,16.70
2019-04-23T10:44:31.196Z,16.80
2019-04-23T10:47:45.246Z,16.90
2019-04-23T10:50:44.460Z,16.80
2019-04-23T10:53:09.249Z,16.80
2019-04-23T10:55:42.216Z,16.90
2019-04-23T10:58:12.621Z,16.80
2019-04-23T11:00:36.176Z,17.00
2019-04-23T11:03:25.400Z,17.10
2019-04-23T11:08:11.168Z,17.20
2019-04-23T11:10:44.281Z,17.40
2019-04-23T11:13:25.727Z,17.70
2019-04-23T11:16:11.017Z,17.90
2019-04-23T11:18:34.170Z,18.30
2019-04-23T11:20:52.153Z,18.30
2019-04-23T11:23:27.345Z,18.00
2019-04-23T11:26:01.337Z,18.20
2019-04-23T11:28:25.988Z,18.60
2019-04-23T11:30:55.660Z,18.80
2019-04-23T11:33:37.895Z,18.50
2019-04-23T11:36:33.296Z,18.30
2019-04-23T11:41:16.470Z,18.10
2019-04-23T11:46:21.578Z,18.40
2019-04-23T11:48:54.674Z,18.20
2019-04-23T11:56:33.058Z,17.80
2019-04-23T12:04:37.120Z,18.20
2019-04-23T12:07:22.912Z,18.30
2019-04-23T12:10:07.297Z,18.10
2019-04-23T12:12:39.536Z,18.00
2019-04-23T12:15:26.689Z,18.20
2019-04-23T12:17:43.878Z,18.20
2019-04-23T12:20:16.196Z,18.40
2019-04-23T12:22:51.251Z,18.40
2019-04-23T12:25:31.235Z,18.60
2019-04-23T12:27:59.252Z,18.30
2019-04-23T12:30:25.329Z,18.30
2019-04-23T12:32:59.448Z,18.40
2019-04-23T12:38:14.155Z,18.60
2019-04-23T12:40:37.927Z,18.80
2019-04-23T12:43:17.242Z,18.80
2019-04-23T12:45:44.254Z,18.70
2019-04-23T12:48:27.877Z,18.70
2019-04-23T12:53:27.313Z,18.40
2019-04-23T12:58:26.737Z,18.40
2019-04-23T13:00:46.235Z,18.50
2019-04-23T13:03:28.347Z,18.60
2019-04-23T13:05:46.792Z,18.50
2019-04-23T13:08:33.639Z,18.60
2019-04-23T13:11:00.450Z,18.50
2019-04-23T13:13:35.186Z,18.40
2019-04-23T13:16:02.831Z,18.50
2019-04-23T13:18:34.742Z,18.70
2019-04-23T13:21:14.232Z,18.80
2019-04-23T13:23:34.883Z,19.10
2019-04-23T13:26:17.797Z,19.30
2019-04-23T13:28:38.773Z,19.40
2019-04-23T13:31:12.166Z,19.10
2019-04-23T13:43:53.023Z,19.10
2019-04-23T13:46:17.276Z,19.30
2019-04-23T13:48:46.966Z,19.20
2019-04-23T13:53:53.583Z,19.50
2019-04-23T14:01:28.976Z,19.50
2019-04-23T14:04:06.252Z,19.50
2019-04-23T14:06:36.710Z,19.60
2019-04-23T14:09:14.454Z,19.60
2019-04-23T14:11:46.627Z,19.50
2019-04-23T14:14:18.826Z,19.40
2019-04-23T14:19:06.751Z,19.40
2019-04-23T14:21:47.864Z,19.50
2019-04-23T14:24:31.716Z,19.70
2019-04-23T14:26:50.528Z,19.80
2019-04-23T14:29:34.521Z,19.90
2019-04-23T14:32:10.852Z,19.90
2019-04-23T14:34:40.478Z,20.10
2019-04-23T14:37:11.861Z,19.90
2019-04-23T14:39:43.726Z,19.80
2019-04-23T14:42:21.442Z,20.10
2019-04-23T14:44:47.168Z,20.10
2019-04-23T14:47:25.792Z,20.30
2019-04-23T14:50:22.884Z,20.00
2019-04-23T14:52:31.040Z,19.90
2019-04-23T14:57:42.513Z,20.00
2019-04-23T15:00:07.294Z,19.80
2019-04-23T15:05:13.760Z,19.80
2019-04-23T15:10:18.425Z,20.20
2019-04-23T15:12:45.662Z,20.20
2019-04-23T15:15:18.465Z,20.20
2019-04-23T15:17:51.953Z,20.20
2019-04-23T15:20:23.103Z,20.30
2019-04-23T15:23:10.825Z,20.30
2019-04-23T15:30:14.107Z,19.90
2019-04-23T15:35:29.492Z,20.00
2019-04-23T15:43:07.328Z,19.90
2019-04-23T15:45:28.564Z,19.90
2019-04-23T15:48:03.327Z,19.90
2019-04-23T15:53:01.327Z,19.90
2019-04-23T15:55:33.792Z,19.90
2019-04-23T15:58:16.985Z,19.90
2019-04-23T16:00:36.642Z,19.80
2019-04-23T16:02:42.158Z,19.70
2019-04-23T16:05:12.406Z,19.80
2019-04-23T16:08:04.630Z,19.80
2019-04-23T16:10:47.593Z,19.80
2019-04-23T16:13:20.007Z,19.80
2019-04-23T16:15:54.350Z,19.80
2019-04-23T16:18:37.098Z,19.80
2019-04-23T16:21:12.545Z,19.70
2019-04-23T16:23:37.882Z,19.60
2019-04-23T16:26:12.499Z,19.50
2019-04-23T16:29:00.248Z,19.50
2019-04-23T16:31:15.083Z,19.50
2019-04-23T16:33:54.267Z,19.50
2019-04-23T16:36:24.623Z,19.40
2019-04-23T16:38:52.000Z,19.40
2019-04-23T16:41:25.962Z,19.40
2019-04-23T16:44:14.272Z,19.40
2019-04-23T16:46:25.251Z,19.40
2019-04-23T16:49:11.614Z,19.40
2019-04-23T16:51:27.761Z,19.30
2019-04-23T16:54:01.806Z,19.30
2019-04-23T16:56:42.757Z,19.30
2019-04-23T16:59:08.747Z,19.20
2019-04-23T17:01:28.011Z,19.20
2019-04-23T17:04:13.778Z,19.30
2019-04-23T17:11:34.309Z,19.20
2019-04-23T17:21:40.163Z,19.00
2019-04-23T17:24:18.960Z,18.90
2019-04-23T17:26:51.401Z,18.90
2019-04-23T17:32:00.526Z,18.90
2019-04-23T17:34:38.564Z,18.90
2019-04-23T17:37:05.271Z,18.80
2019-04-23T17:42:50.917Z,18.80
2019-04-23T17:56:11.888Z,18.70
2019-04-23T18:01:17.605Z,18.70
2019-04-23T18:03:41.398Z,18.70
2019-04-23T18:06:15.741Z,18.70
2019-04-23T18:08:33.202Z,18.60
2019-04-23T18:11:13.002Z,18.60
2019-04-23T18:13:43.322Z,18.70
2019-04-23T18:16:21.258Z,18.70
2019-04-23T18:18:45.021Z,18.70
2019-04-23T18:21:35.751Z,18.60
2019-04-23T18:24:22.765Z,18.60
2019-04-23T18:29:53.630Z,18.40
2019-04-23T18:32:42.957Z,18.30
2019-04-23T18:35:19.479Z,18.30
2019-04-23T18:40:03.653Z,18.20
2019-04-23T18:42:45.895Z,18.20
2019-04-23T18:45:18.096Z,18.10
2019-04-23T18:47:54.792Z,18.10
2019-04-23T18:50:22.673Z,18.00
2019-04-23T18:52:55.885Z,18.00
2019-04-23T18:55:29.276Z,18.00
2019-04-23T18:57:55.296Z,18.00
2019-04-23T19:00:24.913Z,17.90
2019-04-23T19:03:20.726Z,17.90
2019-04-23T19:06:13.403Z,17.90
2019-04-23T19:11:46.114Z,17.90
2019-04-23T19:13:57.366Z,17.90
2019-04-23T19:16:41.647Z,17.90
2019-04-23T19:19:04.856Z,17.80
2019-04-23T19:21:59.155Z,17.80
2019-04-23T19:24:03.074Z,17.80
2019-04-23T19:29:11.648Z,17.80
2019-04-23T19:31:54.124Z,17.70
2019-04-23T19:36:59.540Z,17.60
2019-04-23T19:44:34.531Z,17.40
2019-04-23T19:47:06.909Z,17.40
2019-04-23T19:49:35.710Z,17.40
2019-04-23T19:51:59.635Z,17.40
2019-04-23T19:57:08.498Z,17.40
2019-04-23T20:02:15.215Z,17.30
2019-04-23T20:04:45.970Z,17.30
2019-04-23T20:09:51.989Z,17.30
2019-04-23T20:12:28.408Z,17.30
2019-04-23T20:14:50.509Z,17.20
2019-04-23T20:22:25.586Z,16.90
2019-04-23T20:25:03.939Z,16.80
2019-04-23T20:35:13.064Z,16.70
2019-04-23T20:40:25.707Z,16.70
2019-04-23T20:45:23.065Z,16.60
2019-04-23T20:47:57.474Z,16.50
2019-04-23T20:50:32.737Z,16.40
2019-04-23T20:52:51.454Z,16.40
2019-04-23T20:55:43.580Z,16.30
2019-04-23T20:58:14.970Z,16.30
2019-04-23T21:01:09.283Z,16.30
2019-04-23T21:03:46.267Z,16.30
2019-04-23T21:06:06.952Z,16.30
2019-04-23T21:08:52.334Z,16.30
2019-04-23T21:10:58.409Z,16.20
2019-04-23T21:16:05.046Z,16.10
2019-04-23T21:21:09.415Z,16.00
2019-04-23T21:23:45.456Z,16.00
2019-04-23T21:26:02.409Z,15.90
2019-04-23T21:31:28.493Z,16.00
2019-04-23T21:34:00.622Z,16.00
2019-04-23T21:39:38.591Z,15.80
2019-04-23T21:44:46.829Z,15.70
2019-04-23T21:47:15.319Z,15.70
2019-04-23T21:52:20.797Z,15.70
2019-04-23T21:54:53.454Z,15.70
2019-04-23T21:57:24.752Z,15.80
2019-04-23T21:59:55.684Z,15.90
2019-04-23T22:02:32.462Z,15.90
2019-04-23T22:07:40.157Z,16.00
2019-04-23T22:10:02.908Z,16.00
2019-04-23T22:12:40.768Z,16.00
2019-04-23T22:14:57.737Z,16.00
2019-04-23T22:17:33.130Z,15.90
2019-04-23T22:22:45.486Z,16.10
2019-04-23T22:25:11.454Z,16.10
2019-04-23T22:27:44.302Z,16.20
2019-04-23T22:30:04.094Z,16.20
2019-04-23T22:32:47.640Z,16.20
2019-04-23T22:35:07.210Z,16.30
2019-04-23T22:37:42.412Z,16.30
2019-04-23T22:40:10.134Z,16.30
2019-04-23T22:43:01.289Z,16.30
2019-04-23T22:47:56.401Z,16.20
2019-04-23T22:50:19.075Z,16.20
2019-04-23T22:52:53.690Z,16.20
2019-04-23T22:55:23.119Z,16.20
2019-04-23T23:00:34.997Z,16.00
2019-04-23T23:06:12.615Z,15.90
2019-04-23T23:08:34.514Z,15.80
2019-04-23T23:13:46.534Z,15.60
2019-04-23T23:16:10.531Z,15.60
2019-04-23T23:18:33.566Z,15.50
2019-04-23T23:21:07.941Z,15.50
2019-04-23T23:23:40.855Z,15.40
2019-04-23T23:26:11.342Z,15.40
2019-04-23T23:28:41.104Z,15.40
2019-04-23T23:31:11.333Z,15.40
2019-04-23T23:33:50.721Z,15.30
2019-04-23T23:38:58.651Z,15.30
2019-04-23T23:41:22.950Z,15.20
2019-04-23T23:43:54.485Z,15.20
2019-04-23T23:48:54.878Z,15.30
2019-04-23T23:51:25.699Z,15.30
2019-04-23T23:54:00.401Z,15.50
2019-04-23T23:56:19.372Z,15.50
2019-04-23T23:59:06.843Z,15.50
